createdAt,value
2018-03-27T00:00:59.076Z,98939.33
2018-03-27T00:03:26.640Z,98935.14
2018-03-27T00:05:54.247Z,98936.97
2018-03-27T00:08:21.801Z,98937.27
2018-03-27T00:10:49.397Z,98935.56
2018-03-27T00:13:16.954Z,98934.89
2018-03-27T00:15:44.543Z,98931.70
2018-03-27T00:18:12.140Z,98924.69
2018-03-27T00:20:39.924Z,98920.86
2018-03-27T00:23:07.504Z,98913.89
2018-03-27T00:25:35.109Z,98911.23
2018-03-27T00:28:14.329Z,98916.24
2018-03-27T00:30:53.632Z,98915.35
2018-03-27T00:33:33.232Z,98910.78
2018-03-27T00:36:12.485Z,98907.78
2018-03-27T00:38:52.157Z,98903.40
2018-03-27T00:44:15.502Z,98903.20
2018-03-27T00:46:43.069Z,98901.55
2018-03-27T00:49:10.642Z,98911.22
2018-03-27T00:51:38.240Z,98912.13
2018-03-27T00:54:05.790Z,98918.37
2018-03-27T00:56:33.370Z,98931.25
2018-03-27T00:59:00.913Z,98928.70
2018-03-27T01:01:28.500Z,98928.84
2018-03-27T01:03:56.043Z,98927.06
2018-03-27T01:06:23.620Z,98936.59
2018-03-27T01:08:51.159Z,98935.97
2018-03-27T01:11:18.739Z,98939.61
2018-03-27T01:13:46.283Z,98936.13
2018-03-27T01:16:14.497Z,98941.94
2018-03-27T01:18:42.083Z,98940.45
2018-03-27T01:21:09.676Z,98930.50
2018-03-27T01:23:37.263Z,98934.63
2018-03-27T01:26:04.854Z,98931.92
2018-03-27T01:28:33.135Z,98940.91
2018-03-27T01:31:00.685Z,98938.94
2018-03-27T01:33:28.267Z,98934.02
2018-03-27T01:35:55.807Z,98937.91
2018-03-27T01:38:23.395Z,98934.05
2018-03-27T01:40:50.943Z,98939.70
2018-03-27T01:43:18.552Z,98949.16
2018-03-27T01:45:46.100Z,98948.75
2018-03-27T01:48:13.686Z,98961.16
2018-03-27T01:50:41.284Z,98962.49
2018-03-27T01:53:08.823Z,98962.16
2018-03-27T01:55:37.273Z,98964.00
2018-03-27T01:58:04.821Z,98958.39
2018-03-27T02:00:32.368Z,98954.44
2018-03-27T02:03:00.902Z,98955.03
2018-03-27T02:05:28.857Z,98956.83
2018-03-27T02:07:56.455Z,98958.11
2018-03-27T02:10:24.004Z,98956.75
2018-03-27T02:12:57.059Z,98959.91
2018-03-27T02:15:29.967Z,98959.03
2018-03-27T02:18:03.904Z,98961.39
2018-03-27T02:20:37.502Z,98949.42
2018-03-27T02:23:05.125Z,98952.03
2018-03-27T02:25:32.674Z,98949.98
2018-03-27T02:28:00.250Z,98950.55
2018-03-27T02:30:27.793Z,98944.09
2018-03-27T02:32:55.390Z,98952.84
2018-03-27T02:35:23.644Z,98954.93
2018-03-27T02:37:51.253Z,98953.09
2018-03-27T02:40:18.803Z,98945.16
2018-03-27T02:42:46.813Z,98948.94
2018-03-27T02:45:14.405Z,98954.34
2018-03-27T02:47:41.968Z,98951.41
2018-03-27T02:50:09.565Z,98954.86
2018-03-27T02:52:37.158Z,98959.03
2018-03-27T02:55:04.757Z,98958.42
2018-03-27T02:57:32.323Z,98962.77
2018-03-27T03:00:00.748Z,98971.20
2018-03-27T03:02:29.044Z,98967.64
2018-03-27T03:04:56.634Z,98978.18
2018-03-27T03:07:24.257Z,98981.52
2018-03-27T03:09:51.803Z,98973.09
2018-03-27T03:12:19.354Z,98976.52
2018-03-27T03:14:46.943Z,98975.75
2018-03-27T03:17:14.532Z,98984.32
2018-03-27T03:19:42.646Z,98979.06
2018-03-27T03:22:10.249Z,98989.77
2018-03-27T03:24:38.094Z,98986.92
2018-03-27T03:27:05.635Z,98984.57
2018-03-27T03:29:33.832Z,98984.17
2018-03-27T03:32:01.372Z,98988.13
2018-03-27T03:34:28.915Z,98984.75
2018-03-27T03:36:56.495Z,98987.96
2018-03-27T03:39:24.107Z,98990.56
2018-03-27T03:41:51.651Z,99000.90
2018-03-27T03:44:19.645Z,98999.59
2018-03-27T03:46:47.716Z,99000.70
2018-03-27T03:49:15.298Z,98999.86
2018-03-27T03:51:42.960Z,99003.27
2018-03-27T03:54:11.163Z,99003.39
2018-03-27T03:56:38.889Z,99005.77
2018-03-27T03:59:06.492Z,99006.28
2018-03-27T04:01:34.031Z,99011.48
2018-03-27T04:04:01.621Z,99010.27
2018-03-27T04:06:29.188Z,99015.98
2018-03-27T04:08:56.736Z,99021.78
2018-03-27T04:11:24.334Z,99024.86
2018-03-27T04:13:51.888Z,99032.48
2018-03-27T04:16:19.475Z,99037.87
2018-03-27T04:18:47.079Z,99039.49
2018-03-27T04:21:14.621Z,99041.50
2018-03-27T04:23:42.224Z,99045.69
2018-03-27T04:26:09.858Z,99049.13
2018-03-27T04:28:37.415Z,99045.83
2018-03-27T04:31:05.266Z,99044.32
2018-03-27T04:33:32.861Z,99047.63
2018-03-27T04:36:00.560Z,99049.59
2018-03-27T04:38:28.103Z,99051.35
2018-03-27T04:40:56.528Z,99051.84
2018-03-27T04:43:24.132Z,99046.81
2018-03-27T04:45:52.187Z,99044.81
2018-03-27T04:48:19.757Z,99047.96
2018-03-27T04:50:47.356Z,99044.97
2018-03-27T04:53:15.848Z,99049.93
2018-03-27T04:55:43.446Z,99052.53
2018-03-27T04:58:11.020Z,99053.61
2018-03-27T05:00:38.625Z,99056.33
2018-03-27T05:03:06.190Z,99059.45
2018-03-27T05:05:34.135Z,99067.48
2018-03-27T05:08:01.688Z,99067.09
2018-03-27T05:10:29.241Z,99068.00
2018-03-27T05:12:56.836Z,99063.97
2018-03-27T05:15:24.598Z,99068.05
2018-03-27T05:17:52.975Z,99073.92
2018-03-27T05:20:20.590Z,99073.95
2018-03-27T05:22:48.233Z,99079.66
2018-03-27T05:25:16.575Z,99077.39
2018-03-27T05:27:44.155Z,99078.23
2018-03-27T05:30:11.991Z,99066.32
2018-03-27T05:32:39.589Z,99071.69
2018-03-27T05:35:08.081Z,99080.13
2018-03-27T05:37:35.988Z,99075.88
2018-03-27T05:40:04.054Z,99073.53
2018-03-27T05:42:32.511Z,99075.99
2018-03-27T05:45:00.759Z,99089.23
2018-03-27T05:47:28.439Z,99091.97
2018-03-27T05:49:56.974Z,99091.03
2018-03-27T05:52:25.273Z,99092.00
2018-03-27T05:54:54.633Z,99092.99
2018-03-27T05:57:22.538Z,99096.33
2018-03-27T05:59:50.944Z,99100.93
2018-03-27T06:02:19.173Z,99097.08
2018-03-27T06:04:46.734Z,99097.28
2018-03-27T06:07:14.281Z,99102.20
2018-03-27T06:09:41.870Z,99109.58
2018-03-27T06:12:10.457Z,99101.87
2018-03-27T06:14:38.043Z,99102.88
2018-03-27T06:17:05.655Z,99098.98
2018-03-27T06:19:34.308Z,99101.77
2018-03-27T06:22:02.052Z,99098.45
2018-03-27T06:24:29.668Z,99097.78
2018-03-27T06:26:57.669Z,99102.70
2018-03-27T06:29:25.509Z,99097.36
2018-03-27T06:31:53.120Z,99102.69
2018-03-27T06:34:21.581Z,99104.97
2018-03-27T06:36:49.314Z,99107.94
2018-03-27T06:39:16.889Z,99097.39
2018-03-27T06:41:44.444Z,99103.91
2018-03-27T06:44:12.056Z,99098.52
2018-03-27T06:46:39.643Z,99094.47
2018-03-27T06:49:07.273Z,99087.19
2018-03-27T06:51:34.837Z,99092.58
2018-03-27T06:54:02.387Z,99099.67
2018-03-27T06:56:30.284Z,99102.97
2018-03-27T06:58:58.941Z,99101.35
2018-03-27T07:01:26.704Z,99099.66
2018-03-27T07:03:54.919Z,99099.38
2018-03-27T07:06:22.563Z,99096.88
2018-03-27T07:08:50.150Z,99098.02
2018-03-27T07:11:18.286Z,99103.26
2018-03-27T07:13:45.852Z,99113.51
2018-03-27T07:16:13.428Z,99120.84
2018-03-27T07:18:41.086Z,99115.31
2018-03-27T07:21:08.848Z,99112.48
2018-03-27T07:23:37.238Z,99117.80
2018-03-27T07:26:04.853Z,99109.41
2018-03-27T07:28:34.380Z,99121.67
2018-03-27T07:31:02.493Z,99120.79
2018-03-27T07:33:30.113Z,99121.89
2018-03-27T07:35:57.721Z,99122.02
2018-03-27T07:38:25.278Z,99124.08
2018-03-27T07:40:52.884Z,99123.77
2018-03-27T07:43:20.497Z,99130.62
2018-03-27T07:45:49.032Z,99132.84
2018-03-27T07:48:17.475Z,99132.11
2018-03-27T07:50:46.037Z,99137.81
2018-03-27T07:53:14.743Z,99138.58
2018-03-27T07:55:42.349Z,99137.39
2018-03-27T07:58:09.967Z,99132.67
2018-03-27T08:00:37.558Z,99130.27
2018-03-27T08:03:06.157Z,99125.55
2018-03-27T08:05:33.805Z,99128.36
2018-03-27T08:08:01.352Z,99136.16
2018-03-27T08:10:28.975Z,99125.62
2018-03-27T08:12:56.539Z,99127.20
2018-03-27T08:15:24.136Z,99132.46
2018-03-27T08:17:52.373Z,99132.72
2018-03-27T08:20:20.251Z,99135.18
2018-03-27T08:22:48.037Z,99139.98
2018-03-27T08:25:16.558Z,99140.56
2018-03-27T08:27:44.162Z,99142.88
2018-03-27T08:30:12.799Z,99135.03
2018-03-27T08:32:40.441Z,99146.98
2018-03-27T08:35:08.056Z,99141.81
2018-03-27T08:37:35.632Z,99145.25
2018-03-27T08:40:03.260Z,99144.98
2018-03-27T08:42:30.845Z,99142.67
2018-03-27T08:44:58.630Z,99141.34
2018-03-27T08:47:29.543Z,99139.31
2018-03-27T08:49:57.128Z,99134.84
2018-03-27T08:52:24.675Z,99130.47
2018-03-27T08:54:52.327Z,99132.47
2018-03-27T08:57:19.884Z,99133.96
2018-03-27T08:59:47.815Z,99133.42
2018-03-27T09:02:16.097Z,99136.88
2018-03-27T09:04:44.423Z,99130.80
2018-03-27T09:07:11.981Z,99128.91
2018-03-27T09:09:39.601Z,99133.98
2018-03-27T09:12:07.276Z,99132.20
2018-03-27T09:14:35.873Z,99125.77
2018-03-27T09:17:03.472Z,99114.00
2018-03-27T09:19:31.103Z,99122.53
2018-03-27T09:21:58.691Z,99118.86
2018-03-27T09:24:26.864Z,99122.78
2018-03-27T09:26:54.461Z,99123.05
2018-03-27T09:29:22.429Z,99112.81
2018-03-27T09:31:50.247Z,99112.20
2018-03-27T09:34:17.904Z,99108.08
2018-03-27T09:36:45.476Z,99109.84
2018-03-27T09:39:13.102Z,99112.53
2018-03-27T09:41:41.043Z,99102.48
2018-03-27T09:44:08.645Z,99104.13
2018-03-27T09:46:36.196Z,99103.19
2018-03-27T09:49:04.660Z,99097.86
2018-03-27T09:51:32.221Z,99096.17
2018-03-27T09:53:59.823Z,99096.73
2018-03-27T09:56:27.511Z,99094.66
2018-03-27T09:58:55.085Z,99103.33
2018-03-27T10:01:28.579Z,99091.51
2018-03-27T10:03:56.144Z,99091.17
2018-03-27T10:06:23.755Z,99088.95
2018-03-27T10:08:51.408Z,99082.62
2018-03-27T10:11:19.142Z,99086.53
2018-03-27T10:13:46.721Z,99086.13
2018-03-27T10:16:14.333Z,99082.74
2018-03-27T10:18:41.900Z,99087.53
2018-03-27T10:21:09.504Z,99081.34
2018-03-27T10:23:37.081Z,99082.95
2018-03-27T10:26:05.667Z,99086.20
2018-03-27T10:28:33.229Z,99086.53
2018-03-27T10:31:00.806Z,99089.85
2018-03-27T10:33:28.396Z,99093.84
2018-03-27T10:35:56.978Z,99094.80
2018-03-27T10:38:24.672Z,99089.99
2018-03-27T10:40:52.254Z,99086.55
2018-03-27T10:43:19.870Z,99085.70
2018-03-27T10:45:47.716Z,99089.57
2018-03-27T10:48:15.433Z,99094.80
2018-03-27T10:50:43.043Z,99097.91
2018-03-27T10:53:11.432Z,99104.71
2018-03-27T10:55:39.844Z,99103.76
2018-03-27T10:58:07.426Z,99107.80
2018-03-27T11:00:35.300Z,99111.30
2018-03-27T11:03:03.558Z,99103.49
2018-03-27T11:05:31.166Z,99104.64
2018-03-27T11:07:58.776Z,99103.78
2018-03-27T11:10:26.340Z,99098.39
2018-03-27T11:12:53.912Z,99100.88
2018-03-27T11:15:21.604Z,99106.34
2018-03-27T11:17:49.208Z,99108.89
2018-03-27T11:20:16.829Z,99111.37
2018-03-27T11:22:44.403Z,99113.95
2018-03-27T11:25:11.955Z,99112.73
2018-03-27T11:27:39.738Z,99121.10
2018-03-27T11:30:08.281Z,99118.66
2018-03-27T11:32:35.881Z,99118.36
2018-03-27T11:35:03.453Z,99127.90
2018-03-27T11:37:31.394Z,99130.78
2018-03-27T11:39:58.995Z,99141.11
2018-03-27T11:42:27.380Z,99142.54
2018-03-27T11:44:55.076Z,99143.73
2018-03-27T11:47:22.672Z,99142.77
2018-03-27T11:49:50.305Z,99141.73
2018-03-27T11:52:18.276Z,99142.95
2018-03-27T11:54:45.939Z,99138.97
2018-03-27T11:57:13.561Z,99140.39
2018-03-27T11:59:41.132Z,99136.92
2018-03-27T12:02:09.572Z,99136.88
2018-03-27T12:04:37.142Z,99131.27
2018-03-27T12:07:04.691Z,99131.54
2018-03-27T12:09:32.298Z,99133.89
2018-03-27T12:11:59.908Z,99133.27
2018-03-27T12:14:27.460Z,99129.34
2018-03-27T12:16:55.030Z,99126.75
2018-03-27T12:19:23.416Z,99110.98
2018-03-27T12:21:51.062Z,99111.68
2018-03-27T12:24:19.034Z,99116.13
2018-03-27T12:26:46.637Z,99108.59
2018-03-27T12:29:14.247Z,99109.97
2018-03-27T12:31:42.141Z,99109.33
2018-03-27T12:34:09.804Z,99101.56
2018-03-27T12:36:37.363Z,99102.48
2018-03-27T12:39:05.742Z,99101.89
2018-03-27T12:41:33.457Z,99101.70
2018-03-27T12:44:01.143Z,99099.09
2018-03-27T12:46:28.783Z,99097.48
2018-03-27T12:48:56.781Z,99091.31
2018-03-27T12:51:24.372Z,99088.56
2018-03-27T12:53:52.251Z,99095.73
2018-03-27T12:56:21.288Z,99086.83
2018-03-27T12:58:49.560Z,99088.29
2018-03-27T13:01:17.403Z,99086.78
2018-03-27T13:03:46.846Z,99086.78
2018-03-27T13:06:14.826Z,99086.36
2018-03-27T13:08:42.780Z,99087.40
2018-03-27T13:11:10.706Z,99075.38
2018-03-27T13:13:39.638Z,99080.25
2018-03-27T13:16:07.262Z,99079.02
2018-03-27T13:18:37.058Z,99081.35
2018-03-27T13:21:05.281Z,99072.49
2018-03-27T13:23:33.633Z,99084.50
2018-03-27T13:26:03.200Z,99082.48
2018-03-27T13:28:31.929Z,99081.64
2018-03-27T13:31:00.175Z,99080.94
2018-03-27T13:33:28.429Z,99073.41
2018-03-27T13:35:56.386Z,99070.31
2018-03-27T13:38:24.029Z,99066.71
2018-03-27T13:40:51.637Z,99065.22
2018-03-27T13:43:19.529Z,99068.02
2018-03-27T13:45:48.965Z,99068.25
2018-03-27T13:48:16.538Z,99065.41
2018-03-27T13:50:44.201Z,99066.61
2018-03-27T13:53:13.072Z,99072.20
2018-03-27T13:55:40.627Z,99063.27
2018-03-27T13:58:09.787Z,99061.63
2018-03-27T14:00:38.185Z,99056.24
2018-03-27T14:03:05.772Z,99057.22
2018-03-27T14:05:34.302Z,99057.88
2018-03-27T14:08:03.334Z,99056.88
2018-03-27T14:10:32.025Z,99062.22
2018-03-27T14:13:00.986Z,99054.20
2018-03-27T14:15:28.968Z,99052.48
2018-03-27T14:17:56.569Z,99053.79
2018-03-27T14:20:25.132Z,99049.48
2018-03-27T14:22:54.141Z,99049.63
2018-03-27T14:25:22.544Z,99055.52
2018-03-27T14:27:50.184Z,99051.58
2018-03-27T14:30:18.845Z,99053.73
2018-03-27T14:32:46.429Z,99051.13
2018-03-27T14:35:14.836Z,99054.77
2018-03-27T14:37:43.569Z,99052.61
2018-03-27T14:40:11.639Z,99054.17
2018-03-27T14:42:39.232Z,99061.05
2018-03-27T14:45:07.238Z,99064.30
2018-03-27T14:47:38.990Z,99075.03
2018-03-27T14:50:07.201Z,99077.77
2018-03-27T14:52:36.597Z,99079.13
2018-03-27T14:55:04.867Z,99079.13
2018-03-27T14:57:33.124Z,99077.44
2018-03-27T15:00:00.684Z,99076.64
2018-03-27T15:02:30.121Z,99069.94
2018-03-27T15:04:58.447Z,99070.92
2018-03-27T15:07:26.453Z,99072.89
2018-03-27T15:09:54.360Z,99073.27
2018-03-27T15:12:22.240Z,99085.20
2018-03-27T15:14:50.956Z,99079.59
2018-03-27T15:17:19.644Z,99085.67
2018-03-27T15:19:47.232Z,99094.85
2018-03-27T15:22:14.838Z,99093.12
2018-03-27T15:24:42.759Z,99093.08
2018-03-27T15:27:10.636Z,99090.88
2018-03-27T15:29:38.472Z,99085.30
2018-03-27T15:32:07.175Z,99082.25
2018-03-27T15:34:34.763Z,99087.07
2018-03-27T15:37:02.603Z,99087.07
2018-03-27T15:39:30.195Z,99088.42
2018-03-27T15:41:58.515Z,99087.07
2018-03-27T15:44:26.082Z,99092.31
2018-03-27T15:46:53.908Z,99095.73
2018-03-27T15:49:22.078Z,99097.05
2018-03-27T15:51:49.696Z,99095.31
2018-03-27T15:54:17.464Z,99094.39
2018-03-27T15:56:46.101Z,99100.47
2018-03-27T15:59:13.823Z,99100.61
2018-03-27T16:01:41.848Z,99097.27
2018-03-27T16:04:09.428Z,99101.06
2018-03-27T16:06:37.290Z,99098.39
2018-03-27T16:09:05.464Z,99094.46
2018-03-27T16:11:33.416Z,99091.46
2018-03-27T16:14:01.649Z,99094.55
2018-03-27T16:16:31.033Z,99097.09
2018-03-27T16:19:00.343Z,99097.64
2018-03-27T16:21:29.896Z,99100.22
2018-03-27T16:23:58.130Z,99100.67
2018-03-27T16:26:26.297Z,99096.29
2018-03-27T16:28:55.962Z,99098.02
2018-03-27T16:31:25.358Z,99096.94
2018-03-27T16:33:53.605Z,99095.88
2018-03-27T16:36:22.252Z,99100.98
2018-03-27T16:38:51.265Z,99097.48
2018-03-27T16:41:20.350Z,99104.34
2018-03-27T16:43:48.979Z,99100.55
2018-03-27T16:46:20.248Z,99096.81
2018-03-27T16:48:49.574Z,99095.05
2018-03-27T16:51:19.714Z,99097.41
2018-03-27T16:53:47.730Z,99100.28
2018-03-27T16:56:17.344Z,99096.94
2018-03-27T16:58:48.534Z,99103.27
2018-03-27T17:01:17.218Z,99103.05
2018-03-27T17:03:46.527Z,99096.88
2018-03-27T17:06:15.736Z,99115.14
2018-03-27T17:08:44.759Z,99114.80
2018-03-27T17:11:14.111Z,99114.72
2018-03-27T17:13:43.186Z,99121.77
2018-03-27T17:16:11.300Z,99125.79
2018-03-27T17:18:40.168Z,99127.73
2018-03-27T17:21:09.789Z,99131.91
2018-03-27T17:23:38.145Z,99140.73
2018-03-27T17:26:07.505Z,99140.14
2018-03-27T17:28:37.371Z,99137.80
2018-03-27T17:31:05.761Z,99140.05
2018-03-27T17:33:35.975Z,99147.02
2018-03-27T17:36:05.928Z,99154.08
2018-03-27T17:38:34.936Z,99156.24
2018-03-27T17:41:04.479Z,99163.64
2018-03-27T17:43:32.985Z,99166.72
2018-03-27T17:46:02.714Z,99173.36
2018-03-27T17:48:31.110Z,99172.14
2018-03-27T17:50:59.842Z,99179.50
2018-03-27T17:53:29.454Z,99187.02
2018-03-27T17:55:58.693Z,99194.88
2018-03-27T17:58:28.599Z,99195.77
2018-03-27T18:00:57.578Z,99202.53
2018-03-27T18:03:25.829Z,99206.00
2018-03-27T18:05:53.828Z,99203.38
2018-03-27T18:08:22.808Z,99210.09
2018-03-27T18:10:51.472Z,99208.70
2018-03-27T18:13:20.701Z,99210.39
2018-03-27T18:15:49.083Z,99212.12
2018-03-27T18:18:18.067Z,99218.64
2018-03-27T18:20:50.039Z,99227.30
2018-03-27T18:23:22.382Z,99237.83
2018-03-27T18:25:51.813Z,99238.75
2018-03-27T18:28:20.165Z,99248.69
2018-03-27T18:30:51.405Z,99254.02
2018-03-27T18:33:21.927Z,99263.65
2018-03-27T18:35:51.770Z,99271.94
2018-03-27T18:38:24.828Z,99271.09
2018-03-27T18:40:53.411Z,99275.98
2018-03-27T18:43:22.396Z,99282.58
2018-03-27T18:45:54.878Z,99286.05
2018-03-27T18:48:24.635Z,99293.91
2018-03-27T18:50:54.110Z,99301.30
2018-03-27T18:53:24.617Z,99306.83
2018-03-27T18:55:54.565Z,99310.22
2018-03-27T18:58:25.369Z,99322.84
2018-03-27T19:00:55.317Z,99327.12
2018-03-27T19:03:25.931Z,99329.70
2018-03-27T19:05:56.649Z,99329.78
2018-03-27T19:08:26.561Z,99328.47
2018-03-27T19:10:55.586Z,99326.36
2018-03-27T19:13:27.617Z,99325.59
2018-03-27T19:15:57.190Z,99333.45
2018-03-27T19:18:26.632Z,99325.17
2018-03-27T19:20:57.178Z,99326.02
2018-03-27T19:23:26.256Z,99325.59
2018-03-27T19:25:55.280Z,99329.95
2018-03-27T19:28:23.874Z,99331.34
2018-03-27T19:30:52.749Z,99328.22
2018-03-27T19:33:22.263Z,99333.76
2018-03-27T19:35:51.983Z,99342.09
2018-03-27T19:38:21.844Z,99341.01
2018-03-27T19:40:52.158Z,99339.33
2018-03-27T19:43:22.289Z,99341.91
2018-03-27T19:45:52.517Z,99346.53
2018-03-27T19:48:22.741Z,99341.25
2018-03-27T19:50:52.388Z,99339.98
2018-03-27T19:53:20.975Z,99340.44
2018-03-27T19:55:50.395Z,99342.37
2018-03-27T19:58:20.775Z,99340.29
2018-03-27T20:00:49.843Z,99340.29
2018-03-27T20:03:19.473Z,99340.63
2018-03-27T20:05:48.687Z,99337.05
2018-03-27T20:08:17.438Z,99338.83
2018-03-27T20:10:46.052Z,99332.35
2018-03-27T20:13:14.806Z,99336.36
2018-03-27T20:15:44.752Z,99332.36
2018-03-27T20:18:15.495Z,99336.52
2018-03-27T20:20:43.934Z,99327.81
2018-03-27T20:23:12.974Z,99332.13
2018-03-27T20:25:42.534Z,99332.50
2018-03-27T20:28:11.229Z,99319.03
2018-03-27T20:30:42.977Z,99320.26
2018-03-27T20:33:11.463Z,99317.61
2018-03-27T20:35:40.903Z,99324.34
2018-03-27T20:38:10.298Z,99323.00
2018-03-27T20:40:39.252Z,99327.50
2018-03-27T20:43:07.937Z,99322.04
2018-03-27T20:45:36.866Z,99322.34
2018-03-27T20:48:06.894Z,99309.60
2018-03-27T20:50:35.785Z,99312.45
2018-03-27T20:53:05.438Z,99304.51
2018-03-27T20:55:34.873Z,99312.64
2018-03-27T20:58:02.931Z,99308.36
2018-03-27T21:00:31.915Z,99303.30
2018-03-27T21:03:00.099Z,99300.17
2018-03-27T21:05:29.086Z,99303.77
2018-03-27T21:07:57.838Z,99306.47
2018-03-27T21:10:26.853Z,99307.42
2018-03-27T21:12:55.273Z,99309.52
2018-03-27T21:15:24.059Z,99310.30
2018-03-27T21:17:52.297Z,99308.14
2018-03-27T21:20:20.918Z,99311.03
2018-03-27T21:22:50.198Z,99309.20
2018-03-27T21:25:19.256Z,99314.39
2018-03-27T21:27:47.491Z,99316.48
2018-03-27T21:30:16.225Z,99323.08
2018-03-27T21:32:44.079Z,99325.42
2018-03-27T21:35:11.682Z,99329.47
2018-03-27T21:37:39.245Z,99326.86
2018-03-27T21:40:07.083Z,99325.19
2018-03-27T21:42:34.640Z,99316.78
2018-03-27T21:45:02.269Z,99316.16
2018-03-27T21:47:29.835Z,99322.21
2018-03-27T21:49:57.638Z,99329.25
2018-03-27T21:52:25.242Z,99334.94
2018-03-27T21:54:52.796Z,99334.73
2018-03-27T21:57:20.845Z,99338.97
2018-03-27T21:59:48.949Z,99333.62
2018-03-27T22:02:16.539Z,99331.11
2018-03-27T22:04:44.305Z,99324.63
2018-03-27T22:07:13.339Z,99325.16
2018-03-27T22:09:40.943Z,99328.24
2018-03-27T22:12:08.487Z,99323.45
2018-03-27T22:14:36.510Z,99331.47
2018-03-27T22:17:04.125Z,99331.27
2018-03-27T22:19:31.724Z,99335.36
2018-03-27T22:21:59.284Z,99336.67
2018-03-27T22:24:26.886Z,99338.34
2018-03-27T22:26:54.468Z,99336.01
2018-03-27T22:29:22.493Z,99335.55
2018-03-27T22:31:50.049Z,99340.88
2018-03-27T22:34:17.644Z,99347.15
2018-03-27T22:36:45.844Z,99353.45
2018-03-27T22:39:13.405Z,99348.06
2018-03-27T22:41:41.002Z,99340.73
2018-03-27T22:44:08.599Z,99345.18
2018-03-27T22:46:36.190Z,99335.73
2018-03-27T22:49:03.740Z,99333.42
2018-03-27T22:51:31.335Z,99322.39
2018-03-27T22:53:59.636Z,99317.23
2018-03-27T22:56:27.806Z,99320.73
2018-03-27T22:58:55.375Z,99312.56
2018-03-27T23:01:23.482Z,99314.91
2018-03-27T23:03:52.027Z,99315.61
2018-03-27T23:06:19.575Z,99310.37
2018-03-27T23:08:47.916Z,99317.80
2018-03-27T23:11:15.999Z,99322.61
2018-03-27T23:13:43.559Z,99327.94
2018-03-27T23:16:11.179Z,99317.23
2018-03-27T23:18:38.737Z,99315.99
2018-03-27T23:21:06.361Z,99314.16
2018-03-27T23:23:33.907Z,99317.38
2018-03-27T23:26:01.528Z,99312.03
2018-03-27T23:28:29.626Z,99303.23
2018-03-27T23:30:57.226Z,99311.04
2018-03-27T23:33:24.788Z,99302.09
2018-03-27T23:35:52.385Z,99296.22
2018-03-27T23:38:19.979Z,99292.36
2018-03-27T23:40:47.550Z,99289.25
2018-03-27T23:43:15.147Z,99296.20
2018-03-27T23:45:42.757Z,99297.48
2018-03-27T23:48:11.313Z,99302.11
2018-03-27T23:50:38.876Z,99300.70
2018-03-27T23:53:06.429Z,99292.44
2018-03-27T23:55:34.039Z,99294.92
2018-03-27T23:58:01.867Z,99291.47
